7VA7 weather

Virginia DMV Headquarters Heliport
Richmond, Virginia, United States

Public forecast

Using degrees Fahrenheit for public forecast. Weather courtesy of forecast.io.

Closest aviation weather report (METAR) to Virginia DMV Headquarters Heliport

Closest report is Richmond International Airport, 7.6 nm (14.0 km) ESE. Retrieved 2019/12/09 19:54 UTC (56 minutes ago):

KRIC 091954Z 18008KT 2SM -RA BR OVC003 10/09 A2994 RMK AO2 RAB19 SLP145 P0000 T01000094

Closest aviation forecast (TAF) to Virginia DMV Headquarters Heliport

Closest forecast is Richmond International Airport, 7.6 nm (14.0 km) ESE. Retrieved 2019/12/09 18:30 UTC (2 hours ago):

TAF KRIC 091728Z 0918/1018 20007KT 3SM -RA BR OVC003 FM092000 21007KT P6SM OVC008 FM092200 21008KT P6SM OVC015 FM100000 20011KT P6SM OVC025 FM100400 21011G18KT P6SM OVC015 FM101400 21011G18KT P6SM VCSH OVC015